createdAt,value
2023-02-03T00:02:03.616Z,5.60
2023-02-03T00:04:30.529Z,5.60
2023-02-03T00:06:57.533Z,5.60
2023-02-03T00:09:24.463Z,5.60
2023-02-03T00:11:51.464Z,5.60
2023-02-03T00:14:18.346Z,5.60
2023-02-03T00:16:45.382Z,5.60
2023-02-03T00:19:12.313Z,5.50
2023-02-03T00:21:39.231Z,5.50
2023-02-03T00:24:06.341Z,5.50
2023-02-03T00:26:33.337Z,5.50
2023-02-03T00:29:00.909Z,5.50
2023-02-03T00:31:27.955Z,5.50
2023-02-03T00:33:57.571Z,5.50
2023-02-03T00:36:25.620Z,5.50
2023-02-03T00:38:53.685Z,5.50
2023-02-03T00:41:21.614Z,5.50
2023-02-03T00:43:49.627Z,5.50
2023-02-03T00:46:16.859Z,5.40
2023-02-03T00:48:43.838Z,5.40
2023-02-03T00:51:10.922Z,5.40
2023-02-03T00:53:37.953Z,5.50
2023-02-03T00:56:12.529Z,5.40
2023-02-03T00:58:40.677Z,5.40
2023-02-03T01:01:08.366Z,5.50
2023-02-03T01:03:35.406Z,5.50
2023-02-03T01:06:28.855Z,5.50
2023-02-03T01:08:55.854Z,5.50
2023-02-03T01:11:25.765Z,5.50
2023-02-03T01:13:54.615Z,5.40
2023-02-03T01:16:24.061Z,5.50
2023-02-03T01:18:51.844Z,5.50
2023-02-03T01:21:24.349Z,5.50
2023-02-03T01:23:52.055Z,5.50
2023-02-03T01:26:21.737Z,5.50
2023-02-03T01:28:54.071Z,5.50
2023-02-03T01:31:24.542Z,5.50
2023-02-03T01:33:54.281Z,5.50
2023-02-03T01:36:23.964Z,5.50
2023-02-03T01:38:51.847Z,5.50
2023-02-03T01:41:22.383Z,5.60
2023-02-03T01:43:54.595Z,5.50
2023-02-03T01:46:36.307Z,5.60
2023-02-03T01:49:18.753Z,5.50
2023-02-03T01:51:46.871Z,5.50
2023-02-03T01:54:22.229Z,5.60
2023-02-03T01:56:58.961Z,5.60
2023-02-03T01:59:27.094Z,5.60
2023-02-03T02:01:55.054Z,5.60
2023-02-03T02:04:25.732Z,5.60
2023-02-03T02:06:52.888Z,5.60
2023-02-03T02:09:19.869Z,5.60
2023-02-03T02:11:48.235Z,5.60
2023-02-03T02:14:15.303Z,5.60
2023-02-03T02:16:58.301Z,5.60
2023-02-03T02:19:25.150Z,5.60
2023-02-03T02:22:10.885Z,5.60
2023-02-03T02:25:29.664Z,5.60
2023-02-03T02:28:10.785Z,5.60
2023-02-03T02:30:51.894Z,5.60
2023-02-03T02:33:35.691Z,5.60
2023-02-03T02:36:18.669Z,5.60
2023-02-03T02:38:59.819Z,5.50
2023-02-03T02:42:00.751Z,5.50
2023-02-03T02:44:56.140Z,5.50
2023-02-03T02:47:24.371Z,5.50
2023-02-03T02:50:15.838Z,5.50
2023-02-03T02:52:46.332Z,5.50
2023-02-03T02:55:28.090Z,5.50
2023-02-03T02:58:03.972Z,5.50
2023-02-03T03:00:32.064Z,5.60
2023-02-03T03:03:17.499Z,5.60
2023-02-03T03:05:50.847Z,5.60
2023-02-03T03:08:28.213Z,5.60
2023-02-03T03:10:58.090Z,5.60
2023-02-03T03:13:30.711Z,5.60
2023-02-03T03:16:01.166Z,5.60
2023-02-03T03:18:36.949Z,5.60
2023-02-03T03:21:07.064Z,5.60
2023-02-03T03:23:39.766Z,5.70
2023-02-03T03:26:20.146Z,5.70
2023-02-03T03:29:12.704Z,5.70
2023-02-03T03:31:41.120Z,5.70
2023-02-03T03:34:10.983Z,5.70
2023-02-03T03:36:48.824Z,5.70
2023-02-03T03:39:28.717Z,5.60
2023-02-03T03:42:10.670Z,5.60
2023-02-03T03:44:48.148Z,5.60
2023-02-03T03:47:21.079Z,5.70
2023-02-03T03:49:49.146Z,5.60
2023-02-03T03:52:21.761Z,5.70
2023-02-03T03:54:50.085Z,5.70
2023-02-03T03:57:35.881Z,5.70
2023-02-03T04:00:09.678Z,5.70
2023-02-03T04:02:41.020Z,5.60
2023-02-03T04:05:09.259Z,5.70
2023-02-03T04:07:47.102Z,5.70
2023-02-03T04:10:36.994Z,5.70
2023-02-03T04:13:04.665Z,5.70
2023-02-03T04:15:32.199Z,5.70
2023-02-03T04:18:01.489Z,5.70
2023-02-03T04:20:32.904Z,5.70
2023-02-03T04:22:59.913Z,5.70
2023-02-03T04:25:26.846Z,5.70
2023-02-03T04:27:54.614Z,5.70
2023-02-03T04:30:21.984Z,5.70
2023-02-03T04:32:48.987Z,5.70
2023-02-03T04:35:16.342Z,5.70
2023-02-03T04:37:43.281Z,5.70
2023-02-03T04:40:11.287Z,5.70
2023-02-03T04:42:39.465Z,5.70
2023-02-03T04:45:07.953Z,5.70
2023-02-03T04:47:35.248Z,5.70
2023-02-03T04:50:02.498Z,5.70
2023-02-03T04:52:29.484Z,5.70
2023-02-03T04:54:56.387Z,5.70
2023-02-03T04:57:23.321Z,5.70
2023-02-03T04:59:50.262Z,5.70
2023-02-03T05:02:17.190Z,5.70
2023-02-03T05:04:44.048Z,5.60
2023-02-03T05:07:11.129Z,5.60
2023-02-03T05:09:38.067Z,5.60
2023-02-03T05:12:05.285Z,5.60
2023-02-03T05:14:32.218Z,5.60
2023-02-03T05:16:59.133Z,5.60
2023-02-03T05:19:25.987Z,5.60
2023-02-03T05:21:52.925Z,5.60
2023-02-03T05:24:19.802Z,5.60
2023-02-03T05:26:46.754Z,5.60
2023-02-03T05:29:13.670Z,5.60
2023-02-03T05:31:40.663Z,5.60
2023-02-03T05:34:08.818Z,5.60
2023-02-03T05:36:35.760Z,5.60
2023-02-03T05:39:02.628Z,5.60
2023-02-03T05:41:47.922Z,5.60
2023-02-03T05:44:14.945Z,5.60
2023-02-03T05:46:41.989Z,5.60
2023-02-03T05:49:08.944Z,5.60
2023-02-03T05:51:36.168Z,5.60
2023-02-03T05:54:03.175Z,5.60
2023-02-03T05:56:30.330Z,5.60
2023-02-03T05:58:57.314Z,5.60
2023-02-03T06:01:24.262Z,5.60
2023-02-03T06:03:51.487Z,5.60
2023-02-03T06:06:18.866Z,5.60
2023-02-03T06:08:45.836Z,5.60
2023-02-03T06:11:12.905Z,5.60
2023-02-03T06:13:39.973Z,5.60
2023-02-03T06:16:07.101Z,5.60
2023-02-03T06:18:34.120Z,5.70
2023-02-03T06:21:01.233Z,5.60
2023-02-03T06:23:28.138Z,5.70
2023-02-03T06:25:55.556Z,5.70
2023-02-03T06:28:22.705Z,5.60
2023-02-03T06:30:51.276Z,5.70
2023-02-03T06:33:18.198Z,5.70
2023-02-03T06:35:45.137Z,5.70
2023-02-03T06:38:12.015Z,5.70
2023-02-03T06:40:38.935Z,5.70
2023-02-03T06:43:06.010Z,5.70
2023-02-03T06:45:33.118Z,5.70
2023-02-03T06:48:00.125Z,5.70
2023-02-03T06:50:27.452Z,5.70
2023-02-03T06:52:54.645Z,5.70
2023-02-03T06:55:21.563Z,5.70
2023-02-03T06:57:49.243Z,5.70
2023-02-03T07:00:19.303Z,5.70
2023-02-03T07:02:46.978Z,5.60
2023-02-03T07:05:13.970Z,5.60
2023-02-03T07:07:40.820Z,5.60
2023-02-03T07:10:08.110Z,5.60
2023-02-03T07:12:36.638Z,5.60
2023-02-03T07:15:07.240Z,5.60
2023-02-03T07:17:34.093Z,5.50
2023-02-03T07:20:00.971Z,5.50
2023-02-03T07:22:27.998Z,5.50
2023-02-03T07:24:55.007Z,5.50
2023-02-03T07:27:21.846Z,5.40
2023-02-03T07:29:50.818Z,5.40
2023-02-03T07:32:17.829Z,5.40
2023-02-03T07:34:44.705Z,5.40
2023-02-03T07:37:11.659Z,5.50
2023-02-03T07:39:38.577Z,5.50
2023-02-03T07:42:05.443Z,5.40
2023-02-03T07:44:38.856Z,5.40
2023-02-03T07:47:05.715Z,5.50
2023-02-03T07:49:32.514Z,5.50
2023-02-03T07:51:59.385Z,5.50
2023-02-03T07:54:27.043Z,5.50
2023-02-03T07:56:54.463Z,5.50
2023-02-03T07:59:23.729Z,5.50
2023-02-03T08:01:50.672Z,5.40
2023-02-03T08:04:17.599Z,5.40
2023-02-03T08:06:44.532Z,5.50
2023-02-03T08:09:11.426Z,5.50
2023-02-03T08:11:38.240Z,5.50
2023-02-03T08:14:05.067Z,5.50
2023-02-03T08:16:31.949Z,5.50
2023-02-03T08:18:59.232Z,5.50
2023-02-03T08:21:26.116Z,5.50
2023-02-03T08:23:52.958Z,5.50
2023-02-03T08:26:19.763Z,5.50
2023-02-03T08:28:50.302Z,5.50
2023-02-03T08:31:17.499Z,5.50
2023-02-03T08:33:44.426Z,5.60
2023-02-03T08:36:13.933Z,5.60
2023-02-03T08:38:41.588Z,5.60
2023-02-03T08:41:10.530Z,5.60
2023-02-03T08:43:37.876Z,5.60
2023-02-03T08:46:06.609Z,5.60
2023-02-03T08:48:33.995Z,5.60
2023-02-03T08:51:00.840Z,5.70
2023-02-03T08:53:28.389Z,5.70
2023-02-03T08:55:56.395Z,5.70
2023-02-03T08:58:23.261Z,5.70
2023-02-03T09:00:53.063Z,5.70
2023-02-03T09:03:20.255Z,5.80
2023-02-03T09:05:47.188Z,5.80
2023-02-03T09:08:14.127Z,5.80
2023-02-03T09:10:41.057Z,5.80
2023-02-03T09:13:07.969Z,5.80
2023-02-03T09:15:34.903Z,5.80
2023-02-03T09:18:01.860Z,5.80
2023-02-03T09:20:29.330Z,5.80
2023-02-03T09:22:59.628Z,5.90
2023-02-03T09:25:26.573Z,5.90
2023-02-03T09:27:53.623Z,5.90
2023-02-03T09:30:20.740Z,5.90
2023-02-03T09:32:54.147Z,6.00
2023-02-03T09:35:21.746Z,6.00
2023-02-03T09:37:49.008Z,6.00
2023-02-03T09:40:24.531Z,6.10
2023-02-03T09:42:59.943Z,6.10
2023-02-03T09:45:28.802Z,6.10
2023-02-03T09:48:03.237Z,6.20
2023-02-03T09:50:34.645Z,6.20
2023-02-03T09:53:07.691Z,6.20
2023-02-03T09:55:37.114Z,6.30
2023-02-03T09:58:05.962Z,6.30
2023-02-03T10:00:51.647Z,6.30
2023-02-03T10:03:25.433Z,6.30
2023-02-03T10:06:14.500Z,6.40
2023-02-03T10:09:17.160Z,6.40
2023-02-03T10:11:54.729Z,6.40
2023-02-03T10:14:59.348Z,6.50
2023-02-03T10:17:32.929Z,6.50
2023-02-03T10:20:05.494Z,6.50
2023-02-03T10:22:39.822Z,6.50
2023-02-03T10:25:57.252Z,6.50
2023-02-03T10:28:29.539Z,6.60
2023-02-03T10:31:02.015Z,6.60
2023-02-03T10:33:31.110Z,6.60
2023-02-03T10:36:18.721Z,6.60
2023-02-03T10:38:48.649Z,6.60
2023-02-03T10:41:17.211Z,6.60
2023-02-03T10:43:53.021Z,6.70
2023-02-03T10:46:29.458Z,6.60
2023-02-03T10:48:57.061Z,6.70
2023-02-03T10:51:26.997Z,6.70
2023-02-03T10:53:54.037Z,6.80
2023-02-03T10:56:27.201Z,6.80
2023-02-03T10:58:56.641Z,6.80
2023-02-03T11:01:38.316Z,6.80
2023-02-03T11:04:06.391Z,6.90
2023-02-03T11:06:36.304Z,6.90
2023-02-03T11:09:25.334Z,6.90
2023-02-03T11:12:06.101Z,7.00
2023-02-03T11:14:48.541Z,7.00
2023-02-03T11:17:18.334Z,7.00
2023-02-03T11:19:50.185Z,7.10
2023-02-03T11:22:38.938Z,7.10
2023-02-03T11:25:18.616Z,7.10
2023-02-03T11:27:45.809Z,7.10
2023-02-03T11:30:19.367Z,7.10
2023-02-03T11:32:48.252Z,7.10
2023-02-03T11:35:18.227Z,7.20
2023-02-03T11:37:48.095Z,7.10
2023-02-03T11:40:15.095Z,7.10
2023-02-03T11:43:06.431Z,7.10
2023-02-03T11:45:41.979Z,7.10
2023-02-03T11:48:18.785Z,7.10
2023-02-03T11:50:57.730Z,7.10
2023-02-03T11:53:56.203Z,7.10
2023-02-03T11:56:35.337Z,7.10
2023-02-03T11:59:21.290Z,7.10
2023-02-03T12:01:51.381Z,7.10
2023-02-03T12:04:18.274Z,7.10
2023-02-03T12:07:07.087Z,7.20
2023-02-03T12:09:40.819Z,7.20
2023-02-03T12:12:16.364Z,7.20
2023-02-03T12:14:49.675Z,7.20
2023-02-03T12:17:42.335Z,7.20
2023-02-03T12:21:05.928Z,7.20
2023-02-03T12:23:51.291Z,7.20
2023-02-03T12:26:29.663Z,7.30
2023-02-03T12:29:04.111Z,7.30
2023-02-03T12:31:40.011Z,7.30
2023-02-03T12:34:12.737Z,7.30
2023-02-03T12:37:06.132Z,7.30
2023-02-03T12:39:44.580Z,7.30
2023-02-03T12:42:14.235Z,7.30
2023-02-03T12:44:57.321Z,7.20
2023-02-03T12:47:40.101Z,7.30
2023-02-03T12:50:23.990Z,7.20
2023-02-03T12:53:01.859Z,7.20
2023-02-03T12:55:43.100Z,7.20
2023-02-03T12:58:25.071Z,7.20
2023-02-03T13:00:54.604Z,7.20
2023-02-03T13:03:37.087Z,7.20
2023-02-03T13:06:11.566Z,7.20
2023-02-03T13:08:54.490Z,7.20
2023-02-03T13:11:43.052Z,7.20
2023-02-03T13:14:29.716Z,7.20
2023-02-03T13:17:15.800Z,7.20
2023-02-03T13:20:02.411Z,7.20
2023-02-03T13:22:29.294Z,7.30
2023-02-03T13:25:19.024Z,7.30
2023-02-03T13:28:23.036Z,7.30
2023-02-03T13:30:57.120Z,7.30
2023-02-03T13:33:45.321Z,7.30
2023-02-03T13:36:32.474Z,7.30
2023-02-03T13:39:11.634Z,7.30
2023-02-03T13:41:50.155Z,7.30
2023-02-03T13:44:21.904Z,7.30
2023-02-03T13:46:51.601Z,7.30
2023-02-03T13:49:36.630Z,7.30
2023-02-03T13:52:04.838Z,7.30
2023-02-03T13:54:42.525Z,7.30
2023-02-03T13:57:23.028Z,7.30
2023-02-03T13:59:50.431Z,7.30
2023-02-03T14:02:20.285Z,7.30
2023-02-03T14:04:47.095Z,7.30
2023-02-03T14:07:40.943Z,7.30
2023-02-03T14:10:16.817Z,7.40
2023-02-03T14:12:49.864Z,7.30
2023-02-03T14:15:31.327Z,7.30
2023-02-03T14:18:00.461Z,7.30
2023-02-03T14:20:27.485Z,7.30
2023-02-03T14:23:06.255Z,7.30
2023-02-03T14:25:39.696Z,7.30
2023-02-03T14:28:15.141Z,7.20
2023-02-03T14:31:00.461Z,7.30
2023-02-03T14:33:50.511Z,7.20
2023-02-03T14:36:26.362Z,7.20
2023-02-03T14:38:53.924Z,7.20
2023-02-03T14:41:34.449Z,7.20
2023-02-03T14:44:08.343Z,7.20
2023-02-03T14:46:53.769Z,7.20
2023-02-03T14:49:49.769Z,7.20
2023-02-03T14:52:36.871Z,7.10
2023-02-03T14:55:49.412Z,7.10
2023-02-03T14:58:51.711Z,7.10
2023-02-03T15:01:37.051Z,7.00
2023-02-03T15:04:13.004Z,7.10
2023-02-03T15:06:45.297Z,7.00
2023-02-03T15:09:51.914Z,7.00
2023-02-03T15:12:29.267Z,7.00
2023-02-03T15:15:13.636Z,6.90
2023-02-03T15:17:40.632Z,6.90
2023-02-03T15:20:35.417Z,6.80
2023-02-03T15:23:03.321Z,6.80
2023-02-03T15:25:32.907Z,6.80
2023-02-03T15:28:21.145Z,6.80
2023-02-03T15:30:58.467Z,6.80
2023-02-03T15:33:28.025Z,6.80
2023-02-03T15:36:00.787Z,6.80
2023-02-03T15:38:31.588Z,6.80
2023-02-03T15:40:59.345Z,6.80
2023-02-03T15:43:38.474Z,6.70
2023-02-03T15:46:17.833Z,6.80
2023-02-03T15:49:13.032Z,6.80
2023-02-03T15:51:48.894Z,6.80
2023-02-03T15:54:30.603Z,6.70
2023-02-03T15:57:06.713Z,6.70
2023-02-03T15:59:36.994Z,6.80
2023-02-03T16:02:22.671Z,6.80
2023-02-03T16:04:50.605Z,6.80
2023-02-03T16:07:27.533Z,6.80
2023-02-03T16:09:59.506Z,6.80
2023-02-03T16:12:31.909Z,6.70
2023-02-03T16:15:03.015Z,6.80
2023-02-03T16:17:31.564Z,6.80
2023-02-03T16:20:10.852Z,6.70
2023-02-03T16:22:43.757Z,6.70
2023-02-03T16:25:20.661Z,6.70
2023-02-03T16:28:39.920Z,6.70
2023-02-03T16:31:37.427Z,6.70
2023-02-03T16:34:34.964Z,6.70
2023-02-03T16:37:21.406Z,6.70
2023-02-03T16:40:06.683Z,6.70
2023-02-03T16:42:58.182Z,6.60
2023-02-03T16:45:44.370Z,6.70
2023-02-03T16:48:31.393Z,6.60
2023-02-03T16:51:05.041Z,6.60
2023-02-03T16:53:32.929Z,6.60
2023-02-03T16:56:04.493Z,6.60
2023-02-03T16:58:32.065Z,6.60
2023-02-03T17:01:01.194Z,6.60
2023-02-03T17:03:28.791Z,6.60
2023-02-03T17:05:56.988Z,6.60
2023-02-03T17:08:25.722Z,6.60
2023-02-03T17:10:53.276Z,6.60
2023-02-03T17:13:25.216Z,6.70
2023-02-03T17:15:52.971Z,6.70
2023-02-03T17:18:20.886Z,6.70
2023-02-03T17:20:49.207Z,6.70
2023-02-03T17:23:16.835Z,6.70
2023-02-03T17:25:46.545Z,6.70
2023-02-03T17:28:16.492Z,6.70
2023-02-03T17:30:43.499Z,6.70
2023-02-03T17:33:13.746Z,6.70
2023-02-03T17:35:42.613Z,6.70
2023-02-03T17:38:11.179Z,6.70
2023-02-03T17:54:28.673Z,6.70
2023-02-03T17:56:55.626Z,6.70
2023-02-03T17:59:22.536Z,6.70
2023-02-03T18:01:49.521Z,6.70
2023-02-03T18:04:16.467Z,6.70
2023-02-03T18:06:43.374Z,6.70
2023-02-03T18:09:13.970Z,6.70
2023-02-03T18:11:41.258Z,6.70
2023-02-03T18:14:08.268Z,6.70
2023-02-03T18:16:36.188Z,6.70
2023-02-03T18:19:06.062Z,6.80
2023-02-03T18:21:33.038Z,6.70
2023-02-03T18:24:01.641Z,6.80
2023-02-03T18:26:36.314Z,6.80
2023-02-03T18:29:05.508Z,6.80
2023-02-03T18:31:32.829Z,6.80
2023-02-03T18:34:06.606Z,6.80
2023-02-03T18:36:33.502Z,6.80
2023-02-03T18:39:00.316Z,6.80
2023-02-03T18:41:28.613Z,6.80
2023-02-03T18:43:55.724Z,6.90
2023-02-03T18:46:25.436Z,6.90
2023-02-03T18:48:52.583Z,6.90
2023-02-03T18:51:21.669Z,6.90
2023-02-03T18:53:49.589Z,6.90
2023-02-03T18:56:22.374Z,6.90
2023-02-03T18:58:49.499Z,6.90
2023-02-03T19:01:28.164Z,6.90
2023-02-03T19:03:56.686Z,7.00
2023-02-03T19:06:24.316Z,6.90
2023-02-03T19:08:51.624Z,7.00
2023-02-03T19:11:19.321Z,7.00
2023-02-03T19:13:46.244Z,6.90
2023-02-03T19:16:16.696Z,7.00
2023-02-03T19:18:47.341Z,7.00
2023-02-03T19:21:14.754Z,7.00
2023-02-03T19:23:42.264Z,7.00
2023-02-03T19:26:10.161Z,6.90
2023-02-03T19:28:37.455Z,7.00
2023-02-03T19:31:10.552Z,7.00
2023-02-03T19:33:37.845Z,6.90
2023-02-03T19:36:06.210Z,7.00
2023-02-03T19:38:33.170Z,6.90
2023-02-03T19:41:01.640Z,7.00
2023-02-03T19:43:32.009Z,7.00
2023-02-03T19:45:59.420Z,7.00
2023-02-03T19:48:26.374Z,7.00
2023-02-03T19:50:53.539Z,7.00
2023-02-03T19:53:21.635Z,7.00
2023-02-03T19:55:48.532Z,7.00
2023-02-03T19:58:15.451Z,7.00
2023-02-03T20:00:43.021Z,7.00
2023-02-03T20:03:10.490Z,7.00
2023-02-03T20:05:37.608Z,7.00
2023-02-03T20:08:05.289Z,7.00
2023-02-03T20:10:33.039Z,7.00
2023-02-03T20:13:00.675Z,7.00
2023-02-03T20:15:27.544Z,7.00
2023-02-03T20:17:55.094Z,7.00
2023-02-03T20:20:22.654Z,7.00
2023-02-03T20:22:49.869Z,7.00
2023-02-03T20:25:16.889Z,7.00
2023-02-03T20:27:44.031Z,7.00
2023-02-03T20:30:11.930Z,7.00
2023-02-03T20:32:39.011Z,7.00
2023-02-03T20:35:06.872Z,7.00
2023-02-03T20:37:36.023Z,7.00
2023-02-03T20:40:12.297Z,7.00
2023-02-03T20:42:39.256Z,7.00
2023-02-03T20:45:20.473Z,7.00
2023-02-03T20:47:48.222Z,7.00
2023-02-03T20:50:23.627Z,7.00
2023-02-03T20:52:52.997Z,7.10
2023-02-03T20:55:22.942Z,7.10
2023-02-03T20:57:51.614Z,7.10
2023-02-03T21:00:24.563Z,7.10
2023-02-03T21:03:10.355Z,7.10
2023-02-03T21:05:42.174Z,7.10
2023-02-03T21:08:19.706Z,7.10
2023-02-03T21:10:48.130Z,7.10
2023-02-03T21:13:20.724Z,7.10
2023-02-03T21:15:49.566Z,7.10
2023-02-03T21:18:40.189Z,7.10
2023-02-03T21:21:16.181Z,7.10
2023-02-03T21:23:47.343Z,7.10
2023-02-03T21:26:26.092Z,7.10
2023-02-03T21:28:55.341Z,7.10
2023-02-03T21:31:33.937Z,7.10
2023-02-03T21:34:03.719Z,7.20
2023-02-03T21:36:34.860Z,7.10
2023-02-03T21:39:02.278Z,7.10
2023-02-03T21:41:33.704Z,7.20
2023-02-03T21:44:01.174Z,7.20
2023-02-03T21:46:31.715Z,7.10
2023-02-03T21:48:59.881Z,7.20
2023-02-03T21:51:39.024Z,7.20
2023-02-03T21:54:25.772Z,7.20
2023-02-03T21:56:54.092Z,7.20
2023-02-03T21:59:24.392Z,7.20
2023-02-03T22:01:53.088Z,7.20
2023-02-03T22:04:20.182Z,7.30
2023-02-03T22:06:50.114Z,7.30
2023-02-03T22:09:19.993Z,7.30
2023-02-03T22:11:47.060Z,7.30
2023-02-03T22:14:16.417Z,7.30
2023-02-03T22:16:44.246Z,7.40
2023-02-03T22:19:11.273Z,7.40
2023-02-03T22:21:38.163Z,7.40
2023-02-03T22:24:05.469Z,7.40
2023-02-03T22:26:32.316Z,7.50
2023-02-03T22:28:59.341Z,7.50
2023-02-03T22:31:26.388Z,7.50
2023-02-03T22:33:53.288Z,7.50
2023-02-03T22:36:22.140Z,7.50
2023-02-03T22:38:49.265Z,7.50
2023-02-03T22:41:16.151Z,7.50
2023-02-03T22:43:43.235Z,7.50
2023-02-03T22:46:10.223Z,7.50
2023-02-03T22:48:37.236Z,7.50
2023-02-03T22:51:04.972Z,7.50
2023-02-03T22:53:32.186Z,7.50
2023-02-03T22:55:59.038Z,7.50
2023-02-03T22:58:25.901Z,7.50
2023-02-03T23:00:52.724Z,7.50
2023-02-03T23:03:19.619Z,7.60
2023-02-03T23:05:46.440Z,7.60
2023-02-03T23:08:13.292Z,7.60
2023-02-03T23:10:40.054Z,7.60
2023-02-03T23:13:08.204Z,7.50
2023-02-03T23:15:35.041Z,7.60
2023-02-03T23:18:01.955Z,7.50
2023-02-03T23:20:28.934Z,7.50
2023-02-03T23:22:56.077Z,7.50
2023-02-03T23:25:23.163Z,7.50
2023-02-03T23:27:50.200Z,7.50
2023-02-03T23:30:17.343Z,7.50
2023-02-03T23:32:44.411Z,7.50
2023-02-03T23:35:30.372Z,7.50
2023-02-03T23:37:57.490Z,7.50
2023-02-03T23:40:24.578Z,7.50
2023-02-03T23:42:51.573Z,7.50
2023-02-03T23:45:18.551Z,7.50
2023-02-03T23:47:46.442Z,7.50
2023-02-03T23:50:16.468Z,7.50
2023-02-03T23:52:43.648Z,7.50
2023-02-03T23:55:13.715Z,7.50
2023-02-03T23:57:43.912Z,7.50
